createdAt,value
2023-04-09T00:00:35.353Z,92.75
2023-04-09T00:02:36.929Z,92.66
2023-04-09T00:04:38.374Z,93.88
2023-04-09T00:06:39.878Z,93.24
2023-04-09T00:08:41.478Z,93.04
2023-04-09T00:10:42.854Z,93.59
2023-04-09T00:12:44.279Z,93.64
2023-04-09T00:14:45.691Z,93.34
2023-04-09T00:16:47.072Z,93.50
2023-04-09T00:18:48.557Z,93.82
2023-04-09T00:20:50.390Z,93.82
2023-04-09T00:22:52.280Z,94.04
2023-04-09T00:24:53.788Z,94.27
2023-04-09T00:26:55.591Z,93.98
2023-04-09T00:28:57.178Z,94.10
2023-04-09T00:30:58.562Z,94.07
2023-04-09T00:32:59.994Z,94.10
2023-04-09T00:35:01.850Z,93.71
2023-04-09T00:37:03.290Z,93.89
2023-04-09T00:39:04.736Z,94.13
2023-04-09T00:41:06.214Z,93.96
2023-04-09T00:43:07.602Z,93.88
2023-04-09T00:45:09.328Z,93.68
2023-04-09T00:47:10.732Z,94.32
2023-04-09T00:49:12.260Z,93.92
2023-04-09T00:51:13.624Z,94.24
2023-04-09T00:53:16.164Z,93.70
2023-04-09T00:55:18.558Z,93.65
2023-04-09T00:57:20.277Z,93.47
2023-04-09T00:59:21.769Z,93.65
2023-04-09T01:01:24.129Z,93.58
2023-04-09T01:03:25.853Z,93.61
2023-04-09T01:05:34.283Z,93.51
2023-04-09T01:08:01.593Z,93.25
2023-04-09T01:10:16.279Z,92.74
2023-04-09T01:12:31.424Z,92.64
2023-04-09T01:14:45.764Z,92.63
2023-04-09T01:16:54.422Z,92.89
2023-04-09T01:19:04.263Z,92.71
2023-04-09T01:21:33.579Z,92.60
2023-04-09T01:23:46.759Z,92.95
2023-04-09T01:25:57.114Z,92.94
2023-04-09T01:28:33.070Z,92.67
2023-04-09T01:30:35.262Z,92.79
2023-04-09T01:32:38.836Z,92.56
2023-04-09T01:34:42.522Z,92.33
2023-04-09T01:36:50.208Z,92.67
2023-04-09T01:38:52.695Z,92.33
2023-04-09T01:40:55.873Z,93.00
2023-04-09T01:42:58.932Z,92.92
2023-04-09T01:45:01.534Z,92.78
2023-04-09T01:47:03.723Z,92.99
2023-04-09T01:49:05.828Z,92.71
2023-04-09T01:51:07.258Z,92.85
2023-04-09T01:53:09.073Z,93.05
2023-04-09T01:55:10.473Z,93.50
2023-04-09T01:57:11.865Z,93.53
2023-04-09T01:59:14.372Z,93.25
2023-04-09T02:01:55.463Z,93.19
2023-04-09T02:04:01.135Z,92.86
2023-04-09T02:06:09.192Z,93.32
2023-04-09T02:08:13.459Z,93.23
2023-04-09T02:10:17.261Z,92.84
2023-04-09T02:12:19.160Z,92.63
2023-04-09T02:14:26.544Z,93.54
2023-04-09T02:16:29.055Z,92.80
2023-04-09T02:18:30.972Z,93.17
2023-04-09T02:20:32.372Z,93.00
2023-04-09T02:22:33.802Z,93.25
2023-04-09T02:24:35.251Z,93.41
2023-04-09T02:26:36.648Z,93.30
2023-04-09T02:28:38.169Z,92.95
2023-04-09T02:30:39.568Z,93.08
2023-04-09T02:32:41.010Z,93.45
2023-04-09T02:34:42.471Z,92.98
2023-04-09T02:36:43.844Z,92.83
2023-04-09T02:38:45.491Z,93.25
2023-04-09T02:40:46.896Z,93.28
2023-04-09T02:42:48.304Z,93.78
2023-04-09T02:44:49.692Z,93.45
2023-04-09T02:46:54.428Z,93.00
2023-04-09T02:48:55.827Z,92.79
2023-04-09T02:50:58.458Z,92.88
2023-04-09T02:53:00.079Z,93.04
2023-04-09T02:55:01.734Z,94.10
2023-04-09T02:57:03.261Z,93.90
2023-04-09T02:59:04.614Z,93.53
2023-04-09T03:01:08.510Z,93.37
2023-04-09T03:03:10.251Z,93.00
2023-04-09T03:05:11.910Z,92.73
2023-04-09T03:07:13.344Z,92.94
2023-04-09T03:09:14.757Z,93.31
2023-04-09T03:11:16.166Z,92.71
2023-04-09T03:13:17.599Z,92.68
2023-04-09T03:15:19.055Z,92.69
2023-04-09T03:17:20.570Z,92.30
2023-04-09T03:19:21.953Z,92.96
2023-04-09T03:21:23.347Z,92.40
2023-04-09T03:23:24.714Z,92.52
2023-04-09T03:25:26.108Z,92.38
2023-04-09T03:27:27.608Z,92.33
2023-04-09T03:29:28.993Z,91.72
2023-04-09T03:31:30.980Z,91.36
2023-04-09T03:33:32.406Z,91.42
2023-04-09T03:35:33.812Z,92.12
2023-04-09T03:37:35.826Z,91.70
2023-04-09T03:39:37.229Z,91.70
2023-04-09T03:41:38.625Z,91.08
2023-04-09T03:43:40.030Z,91.49
2023-04-09T03:45:41.415Z,91.16
2023-04-09T03:47:42.825Z,91.54
2023-04-09T03:49:44.221Z,90.80
2023-04-09T03:51:45.733Z,91.23
2023-04-09T03:53:47.144Z,90.74
2023-04-09T03:55:48.497Z,90.63
2023-04-09T03:57:49.867Z,90.40
2023-04-09T03:59:51.292Z,90.37
2023-04-09T04:01:52.779Z,90.54
2023-04-09T04:03:54.398Z,90.71
2023-04-09T04:06:03.678Z,90.77
2023-04-09T04:08:05.204Z,90.94
2023-04-09T04:10:07.188Z,91.07
2023-04-09T04:12:09.245Z,91.07
2023-04-09T04:14:10.640Z,92.00
2023-04-09T04:16:12.050Z,91.69
2023-04-09T04:18:13.472Z,91.81
2023-04-09T04:20:14.969Z,91.56
2023-04-09T04:22:16.470Z,92.16
2023-04-09T04:24:17.874Z,91.96
2023-04-09T04:26:19.447Z,91.96
2023-04-09T04:28:20.846Z,91.65
2023-04-09T04:30:22.527Z,91.95
2023-04-09T04:32:23.969Z,92.16
2023-04-09T04:34:25.548Z,91.94
2023-04-09T04:36:26.979Z,92.21
2023-04-09T04:38:28.363Z,92.93
2023-04-09T04:40:29.791Z,92.06
2023-04-09T04:42:31.221Z,92.56
2023-04-09T04:44:32.607Z,91.55
2023-04-09T04:46:34.022Z,92.15
2023-04-09T04:48:35.430Z,91.95
2023-04-09T04:50:36.790Z,91.81
2023-04-09T04:52:40.277Z,91.46
2023-04-09T04:54:41.753Z,92.12
2023-04-09T04:56:43.275Z,91.19
2023-04-09T04:58:44.868Z,91.56
2023-04-09T05:00:46.905Z,91.76
2023-04-09T05:02:48.431Z,91.29
2023-04-09T05:04:50.113Z,91.12
2023-04-09T05:06:51.563Z,91.65
2023-04-09T05:08:53.115Z,92.44
2023-04-09T05:10:56.144Z,92.09
2023-04-09T05:12:57.605Z,91.77
2023-04-09T05:14:59.158Z,92.21
2023-04-09T05:17:00.684Z,92.73
2023-04-09T05:19:02.193Z,92.40
2023-04-09T05:21:03.729Z,92.54
2023-04-09T05:23:05.163Z,93.10
2023-04-09T05:25:07.329Z,92.93
2023-04-09T05:27:08.762Z,92.57
2023-04-09T05:29:10.270Z,93.05
2023-04-09T05:31:13.401Z,93.49
2023-04-09T05:33:14.987Z,93.48
2023-04-09T05:35:16.402Z,93.47
2023-04-09T05:37:17.830Z,93.44
2023-04-09T05:39:19.219Z,93.03
2023-04-09T05:41:20.598Z,94.02
2023-04-09T05:43:22.228Z,93.89
2023-04-09T05:45:23.689Z,93.30
2023-04-09T05:47:25.163Z,93.15
2023-04-09T05:49:26.536Z,93.99
2023-04-09T05:51:27.943Z,93.98
2023-04-09T05:53:29.426Z,93.06
2023-04-09T05:55:34.115Z,93.33
2023-04-09T05:57:35.478Z,93.06
2023-04-09T05:59:36.881Z,93.92
2023-04-09T06:01:38.294Z,93.06
2023-04-09T06:03:40.060Z,93.21
2023-04-09T06:05:41.653Z,93.35
2023-04-09T06:07:43.044Z,92.77
2023-04-09T06:09:45.002Z,92.51
2023-04-09T06:11:46.416Z,92.73
2023-04-09T06:13:47.870Z,92.93
2023-04-09T06:15:49.322Z,92.90
2023-04-09T06:17:50.898Z,93.48
2023-04-09T06:19:52.328Z,93.11
2023-04-09T06:21:53.712Z,92.67
2023-04-09T06:23:55.203Z,92.79
2023-04-09T06:25:56.582Z,93.49
2023-04-09T06:27:58.012Z,93.39
2023-04-09T06:29:59.390Z,93.00
2023-04-09T06:32:00.798Z,92.67
2023-04-09T06:34:02.229Z,93.65
2023-04-09T06:36:03.883Z,93.92
2023-04-09T06:38:05.396Z,93.72
2023-04-09T06:40:07.953Z,93.16
2023-04-09T06:42:09.361Z,93.29
2023-04-09T06:44:10.739Z,92.96
2023-04-09T06:46:13.492Z,92.40
2023-04-09T06:48:14.873Z,93.23
2023-04-09T06:50:16.552Z,92.69
2023-04-09T06:52:17.940Z,93.46
2023-04-09T06:54:20.132Z,93.05
2023-04-09T06:56:21.536Z,92.91
2023-04-09T06:58:23.012Z,93.04
2023-04-09T07:00:24.420Z,91.57
2023-04-09T07:02:26.377Z,91.59
2023-04-09T07:04:28.119Z,91.43
2023-04-09T07:06:29.676Z,91.93
2023-04-09T07:08:31.158Z,91.87
2023-04-09T07:10:32.649Z,91.57
2023-04-09T07:12:35.482Z,91.57
2023-04-09T07:14:36.976Z,91.16
2023-04-09T07:16:38.505Z,90.71
2023-04-09T07:18:40.171Z,90.74
2023-04-09T07:20:41.588Z,90.73
2023-04-09T07:22:43.007Z,90.76
2023-04-09T07:24:44.366Z,89.79
2023-04-09T07:26:45.760Z,90.34
2023-04-09T07:28:47.314Z,90.48
2023-04-09T07:30:48.677Z,90.00
2023-04-09T07:32:50.506Z,89.50
2023-04-09T07:34:52.903Z,89.78
2023-04-09T07:36:54.300Z,89.58
2023-04-09T07:38:56.147Z,89.38
2023-04-09T07:40:58.389Z,89.50
2023-04-09T07:42:59.806Z,89.09
2023-04-09T07:45:01.253Z,88.73
2023-04-09T07:47:03.918Z,88.81
2023-04-09T07:49:05.840Z,88.27
2023-04-09T07:51:07.249Z,88.63
2023-04-09T07:53:08.621Z,88.45
2023-04-09T07:55:10.096Z,88.86
2023-04-09T07:57:11.569Z,88.16
2023-04-09T07:59:15.253Z,88.46
2023-04-09T08:01:16.981Z,88.31
2023-04-09T08:05:20.868Z,86.20
2023-04-09T08:07:22.360Z,86.87
2023-04-09T08:09:23.821Z,86.28
2023-04-09T08:11:25.933Z,86.25
2023-04-09T08:13:27.421Z,86.75
2023-04-09T08:15:28.931Z,85.85
2023-04-09T08:17:30.812Z,83.93
2023-04-09T08:19:32.333Z,85.83
2023-04-09T08:21:33.982Z,84.19
2023-04-09T08:23:35.375Z,84.68
2023-04-09T08:25:37.806Z,84.83
2023-04-09T08:27:39.682Z,83.94
2023-04-09T08:29:42.562Z,83.64
2023-04-09T08:31:44.277Z,82.92
2023-04-09T08:33:46.149Z,82.83
2023-04-09T08:35:47.537Z,82.65
2023-04-09T08:37:49.176Z,81.85
2023-04-09T08:39:50.902Z,82.83
2023-04-09T08:41:52.397Z,81.39
2023-04-09T08:43:58.819Z,81.46
2023-04-09T08:46:03.123Z,82.21
2023-04-09T08:48:05.667Z,79.73
2023-04-09T08:50:07.501Z,80.43
2023-04-09T08:52:08.946Z,78.58
2023-04-09T08:54:10.421Z,79.83
2023-04-09T08:56:13.764Z,78.84
2023-04-09T08:58:15.114Z,78.07
2023-04-09T09:00:16.527Z,77.30
2023-04-09T09:02:17.956Z,77.28
2023-04-09T09:04:19.718Z,77.34
2023-04-09T09:06:22.449Z,75.58
2023-04-09T09:08:25.500Z,71.77
2023-04-09T09:10:44.325Z,71.29
2023-04-09T09:12:45.731Z,69.44
2023-04-09T09:14:47.150Z,67.14
2023-04-09T09:16:57.839Z,65.43
2023-04-09T09:19:00.313Z,64.70
2023-04-09T09:21:19.424Z,66.92
2023-04-09T09:23:34.784Z,67.50
2023-04-09T09:25:42.593Z,68.06
2023-04-09T09:27:44.061Z,68.07
2023-04-09T09:29:45.498Z,65.25
2023-04-09T09:31:52.582Z,66.64
2023-04-09T09:33:54.173Z,65.16
2023-04-09T09:35:57.605Z,64.22
2023-04-09T09:38:05.260Z,63.96
2023-04-09T09:40:07.824Z,60.97
2023-04-09T09:42:09.275Z,56.90
2023-04-09T09:44:12.813Z,60.33
2023-04-09T09:46:15.581Z,61.09
2023-04-09T09:48:17.075Z,62.03
2023-04-09T09:50:18.960Z,59.33
2023-04-09T09:52:30.178Z,60.60
2023-04-09T09:54:41.019Z,60.11
2023-04-09T09:56:43.940Z,59.26
2023-04-09T09:58:54.730Z,58.77
2023-04-09T10:00:57.831Z,60.41
2023-04-09T10:03:15.986Z,58.03
2023-04-09T10:05:17.563Z,59.93
2023-04-09T10:07:20.945Z,59.81
2023-04-09T10:09:27.750Z,60.70
2023-04-09T10:11:29.266Z,59.45
2023-04-09T10:13:43.596Z,60.29
2023-04-09T10:15:45.891Z,58.19
2023-04-09T10:17:48.027Z,58.03
2023-04-09T10:19:58.445Z,57.49
2023-04-09T10:22:07.951Z,58.04
2023-04-09T10:24:10.381Z,59.39
2023-04-09T10:26:11.784Z,57.11
2023-04-09T10:28:19.432Z,58.26
2023-04-09T10:30:39.072Z,58.54
2023-04-09T10:32:40.556Z,57.69
2023-04-09T10:34:43.783Z,59.73
2023-04-09T10:36:49.565Z,58.64
2023-04-09T10:38:51.479Z,58.06
2023-04-09T10:40:53.319Z,58.67
2023-04-09T10:42:56.062Z,56.18
2023-04-09T10:45:07.725Z,55.35
2023-04-09T10:47:10.713Z,56.78
2023-04-09T10:49:15.330Z,58.46
2023-04-09T10:51:19.798Z,57.02
2023-04-09T10:53:25.669Z,56.79
2023-04-09T10:55:41.478Z,55.58
2023-04-09T10:57:43.016Z,56.60
2023-04-09T10:59:46.697Z,56.67
2023-04-09T11:01:54.664Z,56.23
2023-04-09T11:04:13.702Z,56.30
2023-04-09T11:06:19.976Z,59.86
2023-04-09T11:08:22.142Z,56.37
2023-04-09T11:10:23.679Z,54.67
2023-04-09T11:12:25.065Z,55.19
2023-04-09T11:14:27.316Z,56.33
2023-04-09T11:16:31.843Z,53.64
2023-04-09T11:18:34.957Z,55.20
2023-04-09T11:20:36.761Z,53.96
2023-04-09T11:22:38.398Z,56.36
2023-04-09T11:24:43.764Z,50.17
2023-04-09T11:26:45.878Z,52.37
2023-04-09T11:28:47.366Z,55.30
2023-04-09T11:30:51.256Z,55.69
2023-04-09T11:32:52.734Z,53.35
2023-04-09T11:34:54.147Z,53.65
2023-04-09T11:36:56.874Z,53.46
2023-04-09T11:38:59.108Z,54.24
2023-04-09T11:41:01.742Z,53.39
2023-04-09T11:43:03.185Z,50.48
2023-04-09T11:45:05.163Z,52.59
2023-04-09T11:47:08.745Z,50.46
2023-04-09T11:49:10.383Z,51.07
2023-04-09T11:51:11.902Z,52.00
2023-04-09T11:53:20.624Z,51.42
2023-04-09T11:55:29.510Z,49.78
2023-04-09T11:57:47.243Z,51.11
2023-04-09T11:59:48.651Z,48.44
2023-04-09T12:01:51.363Z,50.68
2023-04-09T12:03:54.497Z,49.82
2023-04-09T12:05:56.322Z,51.04
2023-04-09T12:08:03.129Z,47.95
2023-04-09T12:10:06.473Z,50.93
2023-04-09T12:12:08.880Z,49.65
2023-04-09T12:14:16.085Z,51.26
2023-04-09T12:16:21.266Z,47.97
2023-04-09T12:18:23.464Z,49.41
2023-04-09T12:20:32.754Z,49.31
2023-04-09T12:22:34.192Z,47.87
2023-04-09T12:24:35.771Z,49.17
2023-04-09T12:26:37.180Z,48.01
2023-04-09T12:28:38.572Z,49.22
2023-04-09T12:30:40.425Z,47.44
2023-04-09T12:32:44.651Z,50.65
2023-04-09T12:34:47.379Z,46.97
2023-04-09T12:36:48.780Z,47.93
2023-04-09T12:38:50.550Z,49.26
2023-04-09T12:40:52.139Z,47.74
2023-04-09T12:42:54.086Z,47.58
2023-04-09T12:44:55.494Z,46.67
2023-04-09T12:46:56.850Z,48.11
2023-04-09T12:48:58.396Z,48.25
2023-04-09T12:50:59.773Z,46.70
2023-04-09T12:53:01.285Z,47.44
2023-04-09T12:55:04.202Z,49.21
2023-04-09T12:57:06.368Z,46.24
2023-04-09T12:59:07.769Z,46.15
2023-04-09T13:01:09.253Z,48.28
2023-04-09T13:03:11.717Z,45.13
2023-04-09T13:05:13.420Z,45.27
2023-04-09T13:07:17.290Z,46.32
2023-04-09T13:09:18.740Z,46.86
2023-04-09T13:11:20.358Z,48.30
2023-04-09T13:13:21.945Z,46.64
2023-04-09T13:15:23.471Z,46.46
2023-04-09T13:17:25.049Z,47.52
2023-04-09T13:19:26.423Z,45.88
2023-04-09T13:21:27.873Z,46.32
2023-04-09T13:23:29.380Z,44.21
2023-04-09T13:25:30.812Z,45.29
2023-04-09T13:27:32.255Z,46.32
2023-04-09T13:29:33.664Z,46.39
2023-04-09T13:31:37.988Z,45.77
2023-04-09T13:33:39.386Z,45.60
2023-04-09T13:35:40.827Z,45.63
2023-04-09T13:37:42.282Z,43.58
2023-04-09T13:39:44.716Z,46.03
2023-04-09T13:41:46.149Z,45.18
2023-04-09T13:43:47.522Z,44.02
2023-04-09T13:45:49.760Z,44.07
2023-04-09T13:47:51.284Z,44.84
2023-04-09T13:49:53.123Z,44.30
2023-04-09T13:51:55.668Z,46.11
2023-04-09T13:53:57.611Z,45.99
2023-04-09T13:55:59.021Z,46.42
2023-04-09T13:58:00.387Z,43.86
2023-04-09T14:00:04.445Z,43.95
2023-04-09T14:02:05.988Z,45.63
2023-04-09T14:04:08.119Z,45.40
2023-04-09T14:06:09.970Z,45.39
2023-04-09T14:08:12.041Z,45.81
2023-04-09T14:10:13.456Z,46.58
2023-04-09T14:12:14.826Z,45.96
2023-04-09T14:14:16.648Z,44.83
2023-04-09T14:16:19.608Z,46.64
2023-04-09T14:18:21.338Z,45.22
2023-04-09T14:20:24.504Z,45.22
2023-04-09T14:22:28.577Z,44.15
2023-04-09T14:24:30.094Z,46.06
2023-04-09T14:26:31.761Z,46.58
2023-04-09T14:28:33.162Z,46.44
2023-04-09T14:30:34.579Z,44.80
2023-04-09T14:32:36.176Z,43.65
2023-04-09T14:34:37.607Z,46.58
2023-04-09T14:36:38.987Z,41.42
2023-04-09T14:38:40.380Z,43.36
2023-04-09T14:40:42.194Z,40.32
2023-04-09T14:42:43.602Z,40.15
2023-04-09T14:44:45.305Z,40.35
2023-04-09T14:46:46.785Z,41.01
2023-04-09T14:48:48.229Z,41.32
2023-04-09T14:50:51.572Z,39.51
2023-04-09T14:52:53.181Z,40.63
2023-04-09T14:54:54.554Z,43.74
2023-04-09T14:56:58.180Z,44.26
2023-04-09T14:58:59.939Z,44.01
2023-04-09T15:01:01.396Z,43.08
2023-04-09T15:03:03.959Z,42.46
2023-04-09T15:05:05.970Z,43.16
2023-04-09T15:07:07.397Z,43.71
2023-04-09T15:09:09.022Z,42.03
2023-04-09T15:11:15.592Z,43.81
2023-04-09T15:13:17.022Z,44.39
2023-04-09T15:15:18.402Z,44.60
2023-04-09T15:17:19.910Z,41.83
2023-04-09T15:19:21.362Z,36.73
2023-04-09T15:21:23.134Z,34.10
2023-04-09T15:23:24.559Z,30.31
2023-04-09T15:25:26.155Z,26.99
2023-04-09T15:27:27.596Z,25.82
2023-04-09T15:29:28.999Z,25.41
2023-04-09T15:31:30.790Z,23.13
2023-04-09T15:33:32.475Z,24.47
2023-04-09T15:35:34.953Z,22.05
2023-04-09T15:37:36.389Z,19.40
2023-04-09T15:39:38.076Z,23.00
2023-04-09T15:41:39.481Z,23.30
2023-04-09T15:43:40.842Z,22.69
2023-04-09T15:45:42.273Z,22.78
2023-04-09T15:47:44.738Z,23.30
2023-04-09T15:49:46.243Z,23.49
2023-04-09T15:51:48.198Z,22.72
2023-04-09T15:53:49.669Z,19.02
2023-04-09T15:55:51.198Z,18.00
2023-04-09T15:57:53.033Z,17.46
2023-04-09T15:59:54.452Z,18.72
2023-04-09T16:01:56.108Z,18.78
2023-04-09T16:03:57.602Z,19.34
2023-04-09T16:06:01.529Z,19.08
2023-04-09T16:08:03.456Z,19.00
2023-04-09T16:10:05.296Z,17.71
2023-04-09T16:12:06.954Z,15.64
2023-04-09T16:14:09.210Z,15.42
2023-04-09T16:16:10.606Z,13.83
2023-04-09T16:18:12.075Z,15.48
2023-04-09T16:20:13.548Z,13.59
2023-04-09T16:22:14.959Z,15.02
2023-04-09T16:24:16.399Z,14.14
2023-04-09T16:26:17.810Z,16.68
2023-04-09T16:28:21.879Z,15.74
2023-04-09T16:30:23.366Z,14.87
2023-04-09T16:32:25.361Z,15.46
2023-04-09T16:34:26.830Z,17.34
2023-04-09T16:36:29.466Z,20.51
2023-04-09T16:38:31.236Z,22.79
2023-04-09T16:40:33.015Z,24.96
2023-04-09T16:42:34.608Z,26.88
2023-04-09T16:44:36.189Z,26.72
2023-04-09T16:46:37.616Z,28.58
2023-04-09T16:48:41.669Z,29.43
2023-04-09T16:50:43.141Z,29.86
2023-04-09T16:52:44.749Z,31.44
2023-04-09T16:54:46.204Z,33.25
2023-04-09T16:56:48.732Z,32.37
2023-04-09T16:58:50.240Z,33.76
2023-04-09T17:00:52.166Z,32.87
2023-04-09T17:02:55.547Z,34.61
2023-04-09T17:04:57.590Z,34.08
2023-04-09T17:06:59.330Z,35.25
2023-04-09T17:09:01.433Z,36.02
2023-04-09T17:11:03.132Z,36.25
2023-04-09T17:13:04.616Z,36.38
2023-04-09T17:15:06.553Z,37.53
2023-04-09T17:17:08.705Z,38.92
2023-04-09T17:19:10.663Z,39.42
2023-04-09T17:21:12.544Z,40.42
2023-04-09T17:23:14.637Z,40.35
2023-04-09T17:25:16.355Z,41.55
2023-04-09T17:27:19.587Z,41.64
2023-04-09T17:29:21.299Z,40.96
2023-04-09T17:31:24.329Z,42.48
2023-04-09T17:33:26.324Z,42.81
2023-04-09T17:35:27.752Z,43.41
2023-04-09T17:37:29.194Z,43.44
2023-04-09T17:39:31.140Z,44.80
2023-04-09T17:41:32.610Z,43.91
2023-04-09T17:43:34.000Z,44.84
2023-04-09T17:45:35.612Z,45.77
2023-04-09T17:47:37.209Z,44.63
2023-04-09T17:49:39.250Z,45.97
2023-04-09T17:51:40.677Z,46.31
2023-04-09T17:53:42.364Z,46.73
2023-04-09T17:55:50.897Z,46.87
2023-04-09T17:57:52.434Z,47.15
2023-04-09T17:59:53.862Z,47.31
2023-04-09T18:01:56.632Z,49.14
2023-04-09T18:03:59.266Z,48.86
2023-04-09T18:06:00.951Z,49.63
2023-04-09T18:08:02.484Z,48.78
2023-04-09T18:10:04.549Z,49.47
2023-04-09T18:12:06.226Z,49.79
2023-04-09T18:14:08.026Z,51.72
2023-04-09T18:16:10.682Z,51.43
2023-04-09T18:18:12.191Z,51.45
2023-04-09T18:20:15.504Z,51.66
2023-04-09T18:22:17.121Z,51.76
2023-04-09T18:24:18.573Z,53.64
2023-04-09T18:26:20.046Z,53.34
2023-04-09T18:28:21.736Z,54.91
2023-04-09T18:30:23.223Z,54.67
2023-04-09T18:32:25.449Z,55.53
2023-04-09T18:34:26.988Z,56.31
2023-04-09T18:36:28.984Z,55.30
2023-04-09T18:38:30.552Z,56.02
2023-04-09T18:40:32.047Z,55.83
2023-04-09T18:42:33.565Z,57.82
2023-04-09T18:44:36.254Z,58.12
2023-04-09T18:46:37.784Z,59.08
2023-04-09T18:48:39.518Z,58.50
2023-04-09T18:50:41.389Z,58.06
2023-04-09T18:52:42.825Z,58.63
2023-04-09T18:54:44.303Z,58.49
2023-04-09T18:56:46.642Z,59.87
2023-04-09T18:58:48.859Z,60.00
2023-04-09T19:00:52.855Z,58.81
2023-04-09T19:02:54.729Z,60.29
2023-04-09T19:04:56.409Z,60.55
2023-04-09T19:06:58.078Z,60.02
2023-04-09T19:08:59.569Z,59.33
2023-04-09T19:11:01.006Z,60.41
2023-04-09T19:13:03.035Z,61.61
2023-04-09T19:15:06.078Z,60.93
2023-04-09T19:17:07.734Z,61.96
2023-04-09T19:19:09.454Z,62.42
2023-04-09T19:21:10.945Z,61.80
2023-04-09T19:23:12.359Z,62.06
2023-04-09T19:25:14.699Z,61.48
2023-04-09T19:27:18.034Z,62.71
2023-04-09T19:29:19.944Z,62.16
2023-04-09T19:31:22.269Z,61.71
2023-04-09T19:33:25.345Z,61.57
2023-04-09T19:35:26.775Z,62.30
2023-04-09T19:37:30.191Z,62.60
2023-04-09T19:39:31.679Z,62.49
2023-04-09T19:41:33.162Z,62.81
2023-04-09T19:43:39.295Z,63.46
2023-04-09T19:45:42.625Z,63.71
2023-04-09T19:47:44.106Z,64.26
2023-04-09T19:49:45.877Z,64.58
2023-04-09T19:51:47.651Z,65.07
2023-04-09T19:53:49.374Z,65.18
2023-04-09T19:55:51.551Z,64.95
2023-04-09T19:57:53.115Z,63.95
2023-04-09T19:59:55.077Z,65.28
2023-04-09T20:01:57.099Z,65.66
2023-04-09T20:03:58.755Z,66.20
2023-04-09T20:06:00.417Z,64.05
2023-04-09T20:08:01.842Z,65.52
2023-04-09T20:10:03.774Z,64.94
2023-04-09T20:12:06.966Z,65.22
2023-04-09T20:14:08.576Z,65.33
2023-04-09T20:16:10.315Z,64.33
2023-04-09T20:18:12.308Z,64.72
2023-04-09T20:20:14.365Z,66.85
2023-04-09T20:22:16.266Z,67.15
2023-04-09T20:24:17.951Z,66.46
2023-04-09T20:26:19.367Z,65.25
2023-04-09T20:28:21.028Z,65.04
2023-04-09T20:30:22.694Z,65.62
2023-04-09T20:32:24.446Z,66.67
2023-04-09T20:34:29.362Z,66.00
2023-04-09T20:36:30.981Z,66.81
2023-04-09T20:38:32.696Z,67.03
2023-04-09T20:40:36.999Z,66.55
2023-04-09T20:42:41.796Z,67.13
2023-04-09T20:44:43.390Z,65.97
2023-04-09T20:46:44.966Z,66.17
2023-04-09T20:48:46.535Z,67.22
2023-04-09T20:50:48.013Z,67.46
2023-04-09T20:52:49.721Z,67.94
2023-04-09T20:54:51.611Z,67.82
2023-04-09T20:56:53.346Z,67.76
2023-04-09T20:58:55.087Z,68.08
2023-04-09T21:01:08.322Z,67.77
2023-04-09T21:03:11.746Z,68.97
2023-04-09T21:05:22.464Z,68.27
2023-04-09T21:07:25.912Z,69.15
2023-04-09T21:09:27.417Z,69.27
2023-04-09T21:11:29.349Z,69.67
2023-04-09T21:13:35.787Z,69.97
2023-04-09T21:15:48.745Z,69.97
2023-04-09T21:17:50.276Z,70.21
2023-04-09T21:19:53.170Z,70.73
2023-04-09T21:21:54.721Z,70.62
2023-04-09T21:23:56.114Z,69.76
2023-04-09T21:25:57.581Z,70.06
2023-04-09T21:27:59.296Z,70.27
2023-04-09T21:30:00.719Z,70.65
2023-04-09T21:32:02.506Z,70.99
2023-04-09T21:34:04.529Z,70.39
2023-04-09T21:36:07.780Z,70.50
2023-04-09T21:38:09.468Z,70.29
2023-04-09T21:40:11.053Z,70.74
2023-04-09T21:42:12.565Z,71.11
2023-04-09T21:44:14.329Z,71.02
2023-04-09T21:46:16.106Z,70.54
2023-04-09T21:48:17.650Z,70.48
2023-04-09T21:50:19.559Z,70.91
2023-04-09T21:52:21.004Z,71.72
2023-04-09T21:54:22.501Z,71.66
2023-04-09T21:56:23.906Z,71.86
2023-04-09T21:58:25.316Z,71.56
2023-04-09T22:00:27.572Z,72.13
2023-04-09T22:02:29.112Z,71.89
2023-04-09T22:04:30.923Z,71.71
2023-04-09T22:06:32.500Z,71.99
2023-04-09T22:08:38.491Z,72.58
2023-04-09T22:10:47.433Z,72.33
2023-04-09T22:12:49.905Z,72.82
2023-04-09T22:14:52.207Z,71.93
2023-04-09T22:16:54.924Z,72.88
2023-04-09T22:18:56.888Z,72.82
2023-04-09T22:20:58.727Z,72.82
2023-04-09T22:23:00.162Z,72.62
2023-04-09T22:25:01.754Z,71.69
2023-04-09T22:27:03.216Z,73.33
2023-04-09T22:29:06.838Z,73.08
2023-04-09T22:31:08.568Z,72.98
2023-04-09T22:33:10.619Z,73.73
2023-04-09T22:35:17.833Z,72.60
2023-04-09T22:37:19.208Z,73.49
2023-04-09T22:39:21.580Z,73.43
2023-04-09T22:41:23.047Z,73.64
2023-04-09T22:43:24.439Z,73.03
2023-04-09T22:45:27.770Z,72.18
2023-04-09T22:47:29.435Z,73.38
2023-04-09T22:49:31.100Z,73.01
2023-04-09T22:51:34.400Z,73.17
2023-04-09T22:53:35.877Z,73.67
2023-04-09T22:55:38.175Z,74.01
2023-04-09T22:57:42.667Z,73.34
2023-04-09T22:59:44.231Z,73.59
2023-04-09T23:01:45.748Z,74.24
2023-04-09T23:03:50.719Z,73.73
2023-04-09T23:05:52.223Z,74.63
2023-04-09T23:07:53.676Z,74.51
2023-04-09T23:09:55.239Z,73.74
2023-04-09T23:11:57.066Z,73.94
2023-04-09T23:13:58.524Z,74.10
2023-04-09T23:15:59.920Z,75.00
2023-04-09T23:18:01.557Z,74.55
2023-04-09T23:20:03.337Z,74.59
2023-04-09T23:22:05.432Z,75.57
2023-04-09T23:24:06.814Z,75.36
2023-04-09T23:26:08.281Z,74.81
2023-04-09T23:28:09.667Z,74.54
2023-04-09T23:30:11.581Z,74.58
2023-04-09T23:32:12.950Z,75.18
2023-04-09T23:34:14.452Z,74.74
2023-04-09T23:36:16.011Z,75.25
2023-04-09T23:38:17.504Z,74.27
2023-04-09T23:40:18.990Z,74.67
2023-04-09T23:42:20.692Z,74.97
2023-04-09T23:44:22.081Z,74.56
2023-04-09T23:46:23.569Z,75.29
2023-04-09T23:48:24.944Z,74.16
2023-04-09T23:50:28.573Z,75.41
2023-04-09T23:52:31.005Z,75.52
2023-04-09T23:54:32.649Z,76.09
2023-04-09T23:56:34.085Z,75.21
2023-04-09T23:58:35.612Z,76.06
